New Orleans, LA (70139)

1:35 PM CDT on July 06, 2015 (GMT -0500)
Warehouse District | | Change Station
CLOSE
Current Station
Personal Weather Station
Location: New Orleans, LA
Elevation: 28 ft
Nearby Weather Stations

Elev 28 ft 29.94 °N, 90.07 °W | Updated 32 seconds ago

Overcast
Overcast
90.3 °F
Feels Like 98 °F
N
2.7
Wind Variable Wind from NW
Gusts 4.9 mph

Today
High -- | Low -- °F
--% Chance of Precip.
Yesterday
High -- | Low -- °F
Precip. -- in
6:04 AM 8:04 PM
Waning Gibbous, 73% visible
Pressure 30.14 in
Visibility 10.0 miles
Clouds Scattered Clouds 3200 ft
Mostly Cloudy 4100 ft
Heat Index 98 °F
Dew Point 72 °F
Humidity 55%
Rainfall 0.00 in
Snow Depth Not available.
UV 7.0 out of 12
Pollen 3.50 out of 12
Air Quality Not available.
Flu Activity Not available.
METAR KNEW 061753Z 32005KT 10SM SCT032 BKN041 32/24 A3016 RMK AO2 RAB05E16 SLP205 P0000 60000 T03220239 10328 20272 58009

More Conditions Fewer Conditions

Pressure 30.14 in
Visibility 10.0 miles
Clouds Scattered Clouds 3200 ft
Mostly Cloudy 4100 ft
Heat Index 98 °F
Dew Point 72 °F
Humidity 55%
Rainfall 0.00 in
Snow Depth Not available.
UV 7.0 out of 12
Pollen 3.50 out of 12
Air Quality Not available.
Flu Activity Not available.
METAR KNEW 061753Z 32005KT 10SM SCT032 BKN041 32/24 A3016 RMK AO2 RAB05E16 SLP205 P0000 60000 T03220239 10328 20272 58009

More Conditions Fewer Conditions

10-Day Weather Forecast

×

Almanac

Astronomy

Jul. 06, 2015 Rise Set
Actual Time
Civil Twilight
Nautical Twilight
Astronomical Twilight
Moon
Length of Visible Light
Length of Day
Tomorrow will be .
, % of the Moon is Illuminated

Today's Extremes

State Highs State Lows

Community

WunderPhotos

Upload Photos

1,835,612 photos uploaded!

WunderBlogs® & News

Nearby

Air Quality

  Air Quality AQ Index Pollutant
Not available.

Snow Depth

Station Depth Elevation

Earthquake Activity

City Distance Mag. Time & Date
Minimum magnitude displayed is 2.5.

Coastal Water Temperatures

Place Temperature

Stations

Nearby Weather Stations

Station Location Temp. Windchill Dew Point Humidity Wind Precip. Elev Updated Type